createdAt,value
2023-01-11T00:01:09.415Z,62.65
2023-01-11T00:03:36.824Z,63.57
2023-01-11T00:06:05.006Z,62.14
2023-01-11T00:08:32.308Z,62.48
2023-01-11T00:11:02.240Z,63.96
2023-01-11T00:13:31.142Z,63.15
2023-01-11T00:15:58.258Z,62.88
2023-01-11T00:18:25.384Z,63.05
2023-01-11T00:20:52.554Z,63.61
2023-01-11T00:23:19.886Z,62.68
2023-01-11T00:25:47.099Z,63.60
2023-01-11T00:28:14.274Z,63.60
2023-01-11T00:30:41.434Z,63.55
2023-01-11T00:33:12.059Z,63.76
2023-01-11T00:35:39.322Z,62.83
2023-01-11T00:38:06.456Z,63.25
2023-01-11T00:40:33.538Z,64.27
2023-01-11T00:43:19.444Z,63.77
2023-01-11T00:46:05.456Z,63.61
2023-01-11T00:48:32.550Z,64.69
2023-01-11T00:50:59.773Z,64.12
2023-01-11T00:53:26.834Z,63.70
2023-01-11T00:55:53.910Z,63.63
2023-01-11T00:58:21.015Z,64.33
2023-01-11T01:00:48.089Z,63.43
2023-01-11T01:03:15.899Z,62.66
2023-01-11T01:05:43.105Z,62.51
2023-01-11T01:08:10.243Z,63.26
2023-01-11T01:10:37.434Z,61.88
2023-01-11T01:13:23.178Z,64.04
2023-01-11T01:15:57.227Z,63.32
2023-01-11T01:18:24.385Z,63.47
2023-01-11T01:20:54.561Z,65.28
2023-01-11T01:23:21.653Z,65.95
2023-01-11T01:25:48.830Z,66.34
2023-01-11T01:28:18.890Z,67.42
2023-01-11T01:30:53.912Z,69.05
2023-01-11T01:33:22.802Z,70.16
2023-01-11T01:35:50.316Z,70.71
2023-01-11T01:38:17.725Z,71.38
2023-01-11T01:40:48.413Z,72.59
2023-01-11T01:43:17.975Z,72.85
2023-01-11T01:45:45.589Z,75.81
2023-01-11T01:48:23.176Z,75.51
2023-01-11T01:50:56.433Z,77.82
2023-01-11T01:53:32.043Z,78.21
2023-01-11T01:56:03.676Z,79.32
2023-01-11T01:58:41.455Z,83.29
2023-01-11T02:01:33.756Z,84.04
2023-01-11T02:04:20.897Z,83.96
2023-01-11T02:07:23.300Z,85.60
2023-01-11T02:10:14.224Z,85.40
2023-01-11T02:12:52.897Z,88.13
2023-01-11T02:15:24.726Z,87.95
2023-01-11T02:17:52.684Z,87.24
2023-01-11T02:21:40.155Z,87.97
2023-01-11T02:24:46.988Z,86.66
2023-01-11T02:27:30.426Z,86.69
2023-01-11T02:30:21.687Z,85.15
2023-01-11T02:33:25.196Z,85.36
2023-01-11T02:36:29.110Z,84.71
2023-01-11T02:39:21.378Z,84.31
2023-01-11T02:42:36.995Z,86.48
2023-01-11T02:45:38.167Z,81.74
2023-01-11T02:48:53.928Z,82.49
2023-01-11T02:51:52.703Z,79.39
2023-01-11T02:54:24.282Z,80.37
2023-01-11T02:57:00.781Z,93.94
2023-01-11T02:59:35.576Z,100.00
2023-01-11T03:02:15.213Z,100.00
2023-01-11T03:04:43.238Z,100.00
2023-01-11T03:07:47.862Z,100.00
2023-01-11T03:11:05.743Z,100.00
2023-01-11T03:14:09.092Z,100.00
2023-01-11T03:17:20.627Z,100.00
2023-01-11T03:19:58.061Z,100.00
2023-01-11T03:23:06.420Z,100.00
2023-01-11T03:26:21.293Z,100.00
2023-01-11T03:29:44.970Z,100.00
2023-01-11T03:32:53.033Z,100.00
2023-01-11T03:35:42.189Z,100.00
2023-01-11T03:38:27.459Z,100.00
2023-01-11T03:41:07.487Z,100.00
2023-01-11T03:43:43.197Z,100.00
2023-01-11T03:46:29.035Z,100.00
2023-01-11T03:49:01.525Z,100.00
2023-01-11T03:51:39.091Z,100.00
2023-01-11T03:54:13.594Z,100.00
2023-01-11T03:57:04.682Z,100.00
2023-01-11T03:59:33.618Z,100.00
2023-01-11T04:02:02.973Z,100.00
2023-01-11T04:04:31.851Z,100.00
2023-01-11T04:07:04.407Z,100.00
2023-01-11T04:09:32.851Z,100.00
2023-01-11T04:12:02.838Z,100.00
2023-01-11T04:14:32.359Z,100.00
2023-01-11T04:17:03.133Z,100.00
2023-01-11T04:19:30.421Z,100.00
2023-01-11T04:21:57.558Z,100.00
2023-01-11T04:24:24.917Z,100.00
2023-01-11T04:26:52.156Z,100.00
2023-01-11T04:29:19.237Z,100.00
2023-01-11T04:31:46.331Z,100.00
2023-01-11T04:34:15.703Z,100.00
2023-01-11T04:36:47.854Z,100.00
2023-01-11T04:39:15.998Z,100.00
2023-01-11T04:42:02.530Z,100.00
2023-01-11T04:44:29.611Z,100.00
2023-01-11T04:46:56.667Z,100.00
2023-01-11T04:49:23.802Z,100.00
2023-01-11T04:51:50.928Z,100.00
2023-01-11T04:54:28.021Z,100.00
2023-01-11T04:56:55.209Z,100.00
2023-01-11T04:59:24.062Z,100.00
2023-01-11T05:01:58.298Z,100.00
2023-01-11T05:04:25.764Z,100.00
2023-01-11T05:06:54.714Z,100.00
2023-01-11T05:09:23.211Z,100.00
2023-01-11T05:11:50.445Z,100.00
2023-01-11T05:14:18.443Z,100.00
2023-01-11T05:16:45.704Z,100.00
2023-01-11T05:19:13.192Z,100.00
2023-01-11T05:21:42.432Z,100.00
2023-01-11T05:24:14.252Z,100.00
2023-01-11T05:26:47.939Z,100.00
2023-01-11T05:29:22.504Z,100.00
2023-01-11T05:31:49.806Z,100.00
2023-01-11T05:34:18.772Z,100.00
2023-01-11T05:36:46.421Z,100.00
2023-01-11T05:39:15.271Z,100.00
2023-01-11T05:41:43.349Z,100.00
2023-01-11T05:44:33.029Z,100.00
2023-01-11T05:47:00.378Z,100.00
2023-01-11T05:49:27.542Z,100.00
2023-01-11T05:51:54.706Z,100.00
2023-01-11T05:54:22.207Z,100.00
2023-01-11T05:56:49.322Z,100.00
2023-01-11T05:59:16.529Z,100.00
2023-01-11T06:01:44.499Z,100.00
2023-01-11T06:04:11.631Z,100.00
2023-01-11T06:06:38.804Z,100.00
2023-01-11T06:09:06.014Z,100.00
2023-01-11T06:11:33.433Z,100.00
2023-01-11T06:14:00.624Z,100.00
2023-01-11T06:16:27.870Z,100.00
2023-01-11T06:18:55.441Z,100.00
2023-01-11T06:21:23.122Z,100.00
2023-01-11T06:23:53.456Z,100.00
2023-01-11T06:26:22.744Z,100.00
2023-01-11T06:28:50.906Z,100.00
2023-01-11T06:31:18.723Z,100.00
2023-01-11T06:33:47.282Z,100.00
2023-01-11T06:36:16.196Z,100.00
2023-01-11T06:38:44.986Z,100.00
2023-01-11T06:41:13.525Z,100.00
2023-01-11T06:43:42.242Z,100.00
2023-01-11T06:46:15.792Z,100.00
2023-01-11T06:48:44.501Z,100.00
2023-01-11T06:51:13.347Z,100.00
2023-01-11T06:53:44.335Z,100.00
2023-01-11T06:56:19.145Z,100.00
2023-01-11T06:58:47.795Z,100.00
2023-01-11T07:01:17.744Z,100.00
2023-01-11T07:03:45.647Z,100.00
2023-01-11T07:06:13.958Z,100.00
2023-01-11T07:08:42.578Z,100.00
2023-01-11T07:11:10.687Z,100.00
2023-01-11T07:13:37.977Z,100.00
2023-01-11T07:16:05.356Z,100.00
2023-01-11T07:18:33.541Z,100.00
2023-01-11T07:21:00.692Z,100.00
2023-01-11T07:23:28.052Z,100.00
2023-01-11T07:25:55.580Z,100.00
2023-01-11T07:28:22.835Z,100.00
2023-01-11T07:30:58.772Z,100.00
2023-01-11T07:33:27.852Z,100.00
2023-01-11T07:35:55.449Z,100.00
2023-01-11T07:38:22.968Z,100.00
2023-01-11T07:40:50.384Z,100.00
2023-01-11T07:43:23.540Z,100.00
2023-01-11T07:45:53.225Z,100.00
2023-01-11T07:48:26.589Z,100.00
2023-01-11T07:50:54.947Z,100.00
2023-01-11T07:53:25.726Z,100.00
2023-01-11T07:55:55.691Z,100.00
2023-01-11T07:58:23.605Z,100.00
2023-01-11T08:00:51.078Z,100.00
2023-01-11T08:03:18.249Z,100.00
2023-01-11T08:05:51.493Z,100.00
2023-01-11T08:08:18.675Z,100.00
2023-01-11T08:10:45.829Z,100.00
2023-01-11T08:13:33.291Z,100.00
2023-01-11T08:16:00.519Z,100.00
2023-01-11T08:18:27.830Z,100.00
2023-01-11T08:20:54.913Z,100.00
2023-01-11T08:23:22.040Z,100.00
2023-01-11T08:25:49.163Z,100.00
2023-01-11T08:28:16.300Z,100.00
2023-01-11T08:30:44.586Z,100.00
2023-01-11T08:33:11.880Z,100.00
2023-01-11T08:35:40.164Z,100.00
2023-01-11T08:38:08.339Z,100.00
2023-01-11T08:40:36.461Z,100.00
2023-01-11T08:43:03.936Z,100.00
2023-01-11T08:45:31.065Z,100.00
2023-01-11T08:48:00.422Z,100.00
2023-01-11T08:50:28.323Z,98.49
2023-01-11T08:52:55.477Z,96.96
2023-01-11T08:55:22.674Z,98.25
2023-01-11T08:57:49.907Z,100.00
2023-01-11T09:00:18.050Z,100.00
2023-01-11T09:02:46.001Z,100.00
2023-01-11T09:05:13.452Z,92.64
2023-01-11T09:07:40.747Z,100.00
2023-01-11T09:10:08.654Z,100.00
2023-01-11T09:12:36.065Z,100.00
2023-01-11T09:15:06.162Z,100.00
2023-01-11T09:17:34.949Z,100.00
2023-01-11T09:20:02.212Z,100.00
2023-01-11T09:22:29.599Z,100.00
2023-01-11T09:24:59.124Z,100.00
2023-01-11T09:27:26.633Z,100.00
2023-01-11T09:29:53.638Z,97.32
2023-01-11T09:32:21.084Z,97.19
2023-01-11T09:34:49.761Z,93.73
2023-01-11T09:37:17.340Z,92.33
2023-01-11T09:39:44.850Z,88.83
2023-01-11T09:42:35.096Z,88.04
2023-01-11T09:45:35.224Z,87.05
2023-01-11T09:48:36.677Z,91.39
2023-01-11T09:51:05.308Z,90.95
2023-01-11T09:53:38.596Z,97.66
2023-01-11T09:56:13.855Z,82.39
2023-01-11T09:59:20.957Z,79.08
2023-01-11T10:02:16.475Z,76.28
2023-01-11T10:04:59.626Z,65.94
2023-01-11T10:18:23.320Z,45.41
2023-01-11T10:18:40.987Z,44.09
2023-01-11T10:20:44.056Z,42.31
2023-01-11T10:23:25.614Z,41.28
2023-01-11T10:25:59.368Z,43.68
2023-01-11T10:28:46.155Z,41.68
2023-01-11T10:31:42.633Z,42.97
2023-01-11T10:34:21.807Z,40.24
2023-01-11T10:37:40.564Z,38.41
2023-01-11T10:40:39.908Z,38.65
2023-01-11T10:43:22.710Z,39.56
2023-01-11T10:45:56.053Z,39.67
2023-01-11T10:48:42.108Z,38.24
2023-01-11T10:51:34.725Z,37.44
2023-01-11T10:54:33.371Z,55.11
2023-01-11T10:57:24.828Z,100.00
2023-01-11T11:00:53.133Z,62.75
2023-01-11T11:12:08.621Z,62.08
2023-01-11T11:14:54.606Z,60.76
2023-01-11T11:21:40.602Z,59.23
2023-01-11T11:24:32.624Z,57.56
2023-01-11T11:27:33.460Z,55.51
2023-01-11T11:30:03.682Z,60.64
2023-01-11T11:33:33.058Z,58.74
2023-01-11T11:36:05.094Z,56.14
2023-01-11T11:38:36.937Z,56.56
2023-01-11T11:41:13.056Z,59.55
2023-01-11T11:43:43.975Z,65.84
2023-01-11T11:46:22.944Z,59.44
2023-01-11T11:49:17.385Z,59.51
2023-01-11T11:51:47.987Z,60.55
2023-01-11T11:54:34.417Z,68.86
2023-01-11T11:57:28.312Z,69.28
2023-01-11T12:00:20.506Z,100.00
2023-01-11T12:02:56.544Z,89.00
2023-01-11T12:05:24.134Z,74.94
2023-01-11T12:07:55.619Z,73.06
2023-01-11T12:10:28.758Z,68.32
2023-01-11T12:13:00.344Z,100.00
2023-01-11T12:15:30.360Z,100.00
2023-01-11T12:18:31.318Z,95.90
2023-01-11T12:21:30.498Z,83.59
2023-01-11T12:24:27.593Z,83.38
2023-01-11T12:27:20.527Z,82.92
2023-01-11T12:30:35.513Z,75.90
2023-01-11T12:33:25.134Z,63.60
2023-01-11T12:36:07.014Z,58.78
2023-01-11T12:38:49.098Z,58.78
2023-01-11T12:41:58.950Z,49.71
2023-01-11T12:44:56.861Z,51.04
2023-01-11T12:47:48.183Z,49.27
2023-01-11T12:50:30.195Z,55.21
2023-01-11T13:05:50.539Z,50.20
2023-01-11T13:08:40.833Z,42.40
2023-01-11T13:11:45.951Z,42.62
2023-01-11T13:14:54.606Z,41.73
2023-01-11T13:17:56.492Z,44.66
2023-01-11T13:21:01.314Z,45.08
2023-01-11T13:23:47.719Z,45.15
2023-01-11T13:26:21.665Z,44.67
2023-01-11T13:29:01.203Z,43.72
2023-01-11T13:31:32.008Z,42.45
2023-01-11T13:34:13.585Z,49.08
2023-01-11T13:36:51.974Z,61.61
2023-01-11T13:39:28.739Z,63.74
2023-01-11T13:42:18.842Z,64.12
2023-01-11T13:44:54.513Z,68.69
2023-01-11T13:48:33.242Z,75.87
2023-01-11T13:55:03.141Z,70.18
2023-01-11T13:57:48.133Z,66.51
2023-01-11T14:00:43.710Z,63.30
2023-01-11T14:03:42.088Z,62.18
2023-01-11T14:06:49.355Z,60.51
2023-01-11T14:09:27.982Z,57.95
2023-01-11T14:12:14.288Z,58.66
2023-01-11T14:14:47.387Z,57.50
2023-01-11T14:18:01.355Z,57.31
2023-01-11T14:21:05.679Z,55.05
2023-01-11T14:23:58.745Z,53.99
2023-01-11T14:27:28.699Z,54.72
2023-01-11T14:30:22.302Z,60.62
2023-01-11T14:33:13.451Z,59.71
2023-01-11T14:35:52.431Z,64.09
2023-01-11T14:39:04.913Z,65.17
2023-01-11T14:41:51.730Z,62.40
2023-01-11T14:44:57.016Z,69.78
2023-01-11T14:47:53.903Z,78.11
2023-01-11T14:51:07.948Z,99.04
2023-01-11T14:53:45.981Z,94.90
2023-01-11T14:56:44.815Z,82.66
2023-01-11T14:59:36.235Z,80.49
2023-01-11T15:02:03.442Z,78.56
2023-01-11T15:04:37.472Z,74.35
2023-01-11T15:07:29.367Z,78.26
2023-01-11T15:10:04.648Z,72.30
2023-01-11T15:12:39.476Z,84.21
2023-01-11T15:15:21.509Z,93.84
2023-01-11T15:18:16.142Z,93.56
2023-01-11T15:21:06.636Z,94.03
2023-01-11T15:23:48.643Z,97.65
2023-01-11T15:26:19.970Z,93.75
2023-01-11T15:29:02.882Z,94.65
2023-01-11T15:32:02.475Z,95.45
2023-01-11T15:34:32.610Z,93.15
2023-01-11T15:37:03.697Z,94.80
2023-01-11T15:40:03.128Z,97.89
2023-01-11T15:43:06.768Z,100.00
2023-01-11T15:46:14.499Z,100.00
2023-01-11T15:48:59.784Z,100.00
2023-01-11T15:52:10.334Z,100.00
2023-01-11T15:55:25.160Z,100.00
2023-01-11T15:58:24.112Z,100.00
2023-01-11T16:01:07.526Z,100.00
2023-01-11T16:04:15.119Z,100.00
2023-01-11T16:07:35.832Z,100.00
2023-01-11T16:11:16.620Z,100.00
2023-01-11T16:14:40.200Z,100.00
2023-01-11T16:17:15.353Z,100.00
2023-01-11T16:19:45.650Z,100.00
2023-01-11T16:22:20.118Z,100.00
2023-01-11T16:24:52.882Z,100.00
2023-01-11T16:27:34.558Z,100.00
2023-01-11T16:30:02.459Z,100.00
2023-01-11T16:32:34.752Z,100.00
2023-01-11T16:35:16.280Z,100.00
2023-01-11T16:37:49.700Z,100.00
2023-01-11T16:40:27.345Z,100.00
2023-01-11T16:43:16.340Z,100.00
2023-01-11T16:45:50.155Z,100.00
2023-01-11T16:48:25.863Z,100.00
2023-01-11T16:51:10.410Z,100.00
2023-01-11T16:53:42.119Z,100.00
2023-01-11T16:56:21.057Z,100.00
2023-01-11T16:59:15.617Z,100.00
2023-01-11T17:02:35.980Z,100.00
2023-01-11T17:05:03.274Z,100.00
2023-01-11T17:07:31.070Z,100.00
2023-01-11T17:10:31.363Z,100.00
2023-01-11T17:13:07.193Z,100.00
2023-01-11T17:15:58.923Z,100.00
2023-01-11T17:18:26.167Z,100.00
2023-01-11T17:20:54.524Z,100.00
2023-01-11T17:23:21.762Z,100.00
2023-01-11T17:25:57.035Z,100.00
2023-01-11T17:28:26.143Z,100.00
2023-01-11T17:30:54.535Z,100.00
2023-01-11T17:33:33.937Z,100.00
2023-01-11T17:36:03.223Z,100.00
2023-01-11T17:38:32.996Z,100.00
2023-01-11T17:41:02.579Z,100.00
2023-01-11T17:43:49.565Z,100.00
2023-01-11T17:46:25.626Z,100.00
2023-01-11T17:48:59.781Z,100.00
2023-01-11T17:51:34.023Z,100.00
2023-01-11T17:54:01.418Z,100.00
2023-01-11T17:56:34.707Z,100.00
2023-01-11T17:59:24.529Z,100.00
2023-01-11T18:01:59.747Z,100.00
2023-01-11T18:04:30.314Z,100.00
2023-01-11T18:07:18.058Z,100.00
2023-01-11T18:09:57.196Z,100.00
2023-01-11T18:12:32.766Z,100.00
2023-01-11T18:15:07.399Z,100.00
2023-01-11T18:17:40.356Z,100.00
2023-01-11T18:20:16.483Z,100.00
2023-01-11T18:23:08.272Z,100.00
2023-01-11T18:26:23.190Z,100.00
2023-01-11T18:28:51.268Z,100.00
2023-01-11T18:31:18.577Z,100.00
2023-01-11T18:33:45.887Z,100.00
2023-01-11T18:36:22.517Z,100.00
2023-01-11T18:38:51.177Z,100.00
2023-01-11T18:41:57.529Z,100.00
2023-01-11T18:44:25.167Z,100.00
2023-01-11T18:46:54.255Z,100.00
2023-01-11T18:49:21.412Z,100.00
2023-01-11T18:51:48.536Z,100.00
2023-01-11T18:54:17.525Z,100.00
2023-01-11T18:56:44.715Z,100.00
2023-01-11T18:59:11.895Z,100.00
2023-01-11T19:01:56.162Z,100.00
2023-01-11T19:04:27.788Z,100.00
2023-01-11T19:06:54.923Z,100.00
2023-01-11T19:09:22.337Z,100.00
2023-01-11T19:11:49.503Z,100.00
2023-01-11T19:14:16.736Z,100.00
2023-01-11T19:16:43.987Z,100.00
2023-01-11T19:19:11.225Z,100.00
2023-01-11T19:21:38.404Z,100.00
2023-01-11T19:24:06.128Z,100.00
2023-01-11T19:26:34.212Z,100.00
2023-01-11T19:29:01.564Z,100.00
2023-01-11T19:31:28.676Z,100.00
2023-01-11T19:33:56.128Z,100.00
2023-01-11T19:36:23.327Z,100.00
2023-01-11T19:38:51.644Z,100.00
2023-01-11T19:41:18.899Z,100.00
2023-01-11T19:43:46.109Z,100.00
2023-01-11T19:46:25.868Z,100.00
2023-01-11T19:48:58.241Z,100.00
2023-01-11T19:51:25.509Z,100.00
2023-01-11T19:53:52.605Z,100.00
2023-01-11T19:56:19.714Z,100.00
2023-01-11T19:58:46.855Z,100.00
2023-01-11T20:01:14.589Z,100.00
2023-01-11T20:03:42.573Z,100.00
2023-01-11T20:06:10.062Z,100.00
2023-01-11T20:08:41.393Z,100.00
2023-01-11T20:11:17.628Z,100.00
2023-01-11T20:13:50.743Z,100.00
2023-01-11T20:16:22.375Z,100.00
2023-01-11T20:18:54.698Z,100.00
2023-01-11T20:21:29.057Z,100.00
2023-01-11T20:23:59.438Z,100.00
2023-01-11T20:26:28.214Z,100.00
2023-01-11T20:28:57.036Z,100.00
2023-01-11T20:31:32.015Z,100.00
2023-01-11T20:34:01.689Z,100.00
2023-01-11T20:36:29.327Z,100.00
2023-01-11T20:38:57.310Z,100.00
2023-01-11T20:41:45.447Z,100.00
2023-01-11T20:44:16.341Z,100.00
2023-01-11T20:46:47.505Z,100.00
2023-01-11T20:49:16.199Z,100.00
2023-01-11T20:51:44.869Z,100.00
2023-01-11T20:54:12.404Z,100.00
2023-01-11T20:56:41.742Z,100.00
2023-01-11T21:01:38.143Z,100.00
2023-01-11T21:04:08.813Z,100.00
2023-01-11T21:06:40.333Z,100.00
2023-01-11T21:09:10.255Z,100.00
2023-01-11T21:14:05.117Z,100.00
2023-01-11T21:16:32.646Z,100.00
2023-01-11T21:19:04.962Z,100.00
2023-01-11T21:21:34.525Z,100.00
2023-01-11T21:24:04.340Z,100.00
2023-01-11T21:26:33.336Z,100.00
2023-01-11T21:29:03.661Z,100.00
2023-01-11T21:31:34.958Z,100.00
2023-01-11T21:34:04.406Z,100.00
2023-01-11T21:36:32.794Z,100.00
2023-01-11T21:39:00.756Z,100.00
2023-01-11T21:41:50.545Z,100.00
2023-01-11T21:44:20.182Z,100.00
2023-01-11T21:46:47.957Z,100.00
2023-01-11T21:49:16.801Z,100.00
2023-01-11T21:51:44.487Z,100.00
2023-01-11T21:54:15.573Z,100.00
2023-01-11T21:56:45.029Z,100.00
2023-01-11T21:59:13.534Z,100.00
2023-01-11T22:01:44.206Z,100.00
2023-01-11T22:04:16.277Z,100.00
2023-01-11T22:06:51.133Z,100.00
2023-01-11T22:09:19.499Z,100.00
2023-01-11T22:11:47.162Z,100.00
2023-01-11T22:14:14.207Z,100.00
2023-01-11T22:16:41.404Z,100.00
2023-01-11T22:19:09.139Z,100.00
2023-01-11T22:21:37.938Z,100.00
2023-01-11T22:24:08.953Z,100.00
2023-01-11T22:26:39.119Z,100.00
2023-01-11T22:29:18.009Z,100.00
2023-01-11T22:31:55.082Z,100.00
2023-01-11T22:34:23.438Z,100.00
2023-01-11T22:36:50.980Z,100.00
2023-01-11T22:39:19.766Z,100.00
2023-01-11T22:41:48.788Z,100.00
2023-01-11T22:44:16.657Z,100.00
2023-01-11T22:46:44.522Z,100.00
2023-01-11T22:49:12.451Z,100.00
2023-01-11T22:51:44.299Z,100.00
2023-01-11T22:54:12.916Z,100.00
2023-01-11T22:56:40.964Z,100.00
2023-01-11T22:59:08.834Z,100.00
2023-01-11T23:01:40.237Z,100.00
2023-01-11T23:04:11.202Z,100.00
2023-01-11T23:07:02.483Z,100.00
2023-01-11T23:09:29.965Z,100.00
2023-01-11T23:12:15.683Z,100.00
2023-01-11T23:14:43.590Z,100.00
2023-01-11T23:17:11.490Z,100.00
2023-01-11T23:19:41.377Z,100.00
2023-01-11T23:22:10.306Z,100.00
2023-01-11T23:24:38.138Z,100.00
2023-01-11T23:27:06.014Z,100.00
2023-01-11T23:29:33.347Z,100.00
2023-01-11T23:32:00.618Z,100.00
2023-01-11T23:34:28.077Z,100.00
2023-01-11T23:36:55.869Z,100.00
2023-01-11T23:39:24.001Z,100.00
2023-01-11T23:42:09.583Z,100.00
2023-01-11T23:44:36.958Z,100.00
2023-01-11T23:47:22.307Z,100.00
2023-01-11T23:49:58.373Z,100.00
2023-01-11T23:52:30.199Z,100.00
2023-01-11T23:54:57.982Z,100.00
2023-01-11T23:57:58.185Z,100.00
